createdAt,value
2023-04-19T00:00:08.965Z,80.97
2023-04-19T00:05:12.963Z,80.94
2023-04-19T00:10:14.480Z,81.10
2023-04-19T00:15:15.544Z,80.58
2023-04-19T00:20:16.697Z,80.60
2023-04-19T00:25:17.717Z,80.40
2023-04-19T00:30:18.806Z,80.14
2023-04-19T00:35:19.870Z,79.93
2023-04-19T00:40:21.127Z,79.90
2023-04-19T00:45:22.127Z,79.95
2023-04-19T00:50:23.500Z,79.59
2023-04-19T00:55:24.610Z,79.48
2023-04-19T01:00:25.780Z,79.36
2023-04-19T01:05:26.766Z,79.06
2023-04-19T01:10:27.817Z,79.07
2023-04-19T01:15:29.567Z,78.93
2023-04-19T01:20:30.644Z,78.69
2023-04-19T01:25:31.637Z,78.67
2023-04-19T01:30:34.935Z,78.46
2023-04-19T01:35:36.209Z,78.32
2023-04-19T01:40:37.285Z,78.38
2023-04-19T01:45:38.885Z,78.38
2023-04-19T01:50:39.890Z,78.41
2023-04-19T01:55:40.911Z,78.65
2023-04-19T02:00:42.025Z,78.54
2023-04-19T02:05:43.035Z,78.62
2023-04-19T02:10:48.259Z,78.32
2023-04-19T02:15:49.785Z,78.33
2023-04-19T02:20:51.208Z,78.33
2023-04-19T02:25:52.826Z,78.73
2023-04-19T02:30:53.839Z,78.84
2023-04-19T02:35:54.813Z,79.27
2023-04-19T02:40:55.799Z,79.52
2023-04-19T02:45:56.938Z,79.85
2023-04-19T02:50:58.343Z,80.32
2023-04-19T02:55:59.579Z,80.62
2023-04-19T03:01:00.852Z,80.98
2023-04-19T03:06:02.676Z,81.06
2023-04-19T03:11:06.185Z,80.65
2023-04-19T03:16:08.302Z,80.49
2023-04-19T03:21:10.649Z,80.34
2023-04-19T03:26:27.001Z,80.42
2023-04-19T03:31:30.578Z,80.44
2023-04-19T03:36:32.786Z,80.51
2023-04-19T03:41:34.050Z,80.72
2023-04-19T03:46:45.542Z,80.61
2023-04-19T03:51:48.154Z,80.85
2023-04-19T03:56:49.401Z,80.91
2023-04-19T04:01:50.720Z,81.38
2023-04-19T04:06:52.561Z,81.99
2023-04-19T04:11:53.720Z,82.68
2023-04-19T04:16:55.255Z,82.91
2023-04-19T04:21:56.567Z,83.53
2023-04-19T04:27:00.171Z,83.38
2023-04-19T04:32:10.389Z,83.57
2023-04-19T04:37:13.846Z,82.56
2023-04-19T04:42:15.368Z,83.36
2023-04-19T04:47:16.911Z,83.07
2023-04-19T04:52:23.530Z,82.78
2023-04-19T04:57:40.516Z,83.19
2023-04-19T05:02:43.545Z,83.24
2023-04-19T05:07:45.206Z,83.53
2023-04-19T05:12:46.577Z,84.11
2023-04-19T05:17:48.183Z,83.99
2023-04-19T05:22:49.702Z,84.14
2023-04-19T05:27:51.262Z,84.42
2023-04-19T05:32:52.692Z,84.55
2023-04-19T05:37:53.970Z,84.43
2023-04-19T05:42:55.000Z,84.04
2023-04-19T05:47:56.326Z,83.97
2023-04-19T05:53:23.608Z,84.31
2023-04-19T05:58:27.394Z,84.96
2023-04-19T06:03:31.223Z,83.92
2023-04-19T06:08:33.800Z,83.40
2023-04-19T06:13:35.372Z,82.28
2023-04-19T06:18:36.646Z,82.29
2023-04-19T06:23:37.805Z,80.97
2023-04-19T06:28:38.818Z,80.82
2023-04-19T06:33:40.033Z,80.31
2023-04-19T06:38:41.156Z,78.81
2023-04-19T06:43:42.213Z,78.55
2023-04-19T06:48:43.195Z,78.27
2023-04-19T06:53:44.167Z,78.02
2023-04-19T06:58:45.230Z,77.74
2023-04-19T07:03:46.468Z,77.34
2023-04-19T07:08:50.345Z,76.43
2023-04-19T07:13:51.846Z,76.43
2023-04-19T07:18:53.353Z,74.54
2023-04-19T07:23:54.309Z,73.66
2023-04-19T07:28:56.394Z,73.83
2023-04-19T07:33:57.396Z,74.55
2023-04-19T07:38:58.425Z,74.63
2023-04-19T07:43:59.542Z,76.12
2023-04-19T07:49:00.542Z,77.32
2023-04-19T07:54:01.514Z,78.09
2023-04-19T07:59:08.417Z,77.99
2023-04-19T08:04:10.542Z,77.68
2023-04-19T08:09:11.855Z,77.72
2023-04-19T08:14:30.624Z,77.71
2023-04-19T08:19:34.035Z,78.25
2023-04-19T08:24:35.080Z,78.25
2023-04-19T08:29:38.123Z,78.44
2023-04-19T08:34:39.680Z,77.66
2023-04-19T08:39:41.071Z,77.77
2023-04-19T08:45:02.256Z,76.88
2023-04-19T08:50:17.476Z,77.78
2023-04-19T08:55:27.087Z,77.69
2023-04-19T09:00:28.318Z,77.93
2023-04-19T09:05:30.563Z,78.47
2023-04-19T09:10:31.841Z,79.07
2023-04-19T09:15:38.682Z,79.23
2023-04-19T09:20:42.058Z,78.27
2023-04-19T09:26:19.287Z,79.30
2023-04-19T09:31:43.463Z,79.60
2023-04-19T09:36:52.446Z,79.21
2023-04-19T09:41:58.685Z,79.76
2023-04-19T09:46:59.992Z,79.62
2023-04-19T09:52:03.057Z,78.10
2023-04-19T09:57:04.844Z,77.82
2023-04-19T10:02:07.040Z,76.86
2023-04-19T10:07:29.090Z,76.54
2023-04-19T10:12:52.281Z,76.51
2023-04-19T10:17:53.091Z,77.32
2023-04-19T10:22:54.675Z,78.02
2023-04-19T10:27:56.886Z,78.49
2023-04-19T10:33:02.450Z,79.50
2023-04-19T10:38:15.684Z,79.78
2023-04-19T10:43:18.706Z,80.19
2023-04-19T10:48:35.011Z,80.05
2023-04-19T10:53:57.277Z,80.29
2023-04-19T10:59:01.948Z,80.37
2023-04-19T11:04:03.745Z,81.19
2023-04-19T11:09:06.492Z,81.80
2023-04-19T11:14:08.868Z,82.22
2023-04-19T11:19:09.934Z,82.06
2023-04-19T11:24:12.323Z,82.10
2023-04-19T11:29:14.029Z,82.81
2023-04-19T11:34:15.477Z,83.33
2023-04-19T11:39:17.168Z,84.23
2023-04-19T11:44:19.688Z,84.23
2023-04-19T11:49:28.776Z,83.83
2023-04-19T11:54:29.872Z,84.30
2023-04-19T11:59:32.808Z,84.14
2023-04-19T12:04:34.821Z,84.40
2023-04-19T12:09:36.429Z,85.20
2023-04-19T12:14:38.358Z,84.80
2023-04-19T12:19:45.496Z,84.20
2023-04-19T12:24:46.568Z,84.23
2023-04-19T12:29:47.516Z,84.05
2023-04-19T12:34:48.486Z,84.43
2023-04-19T12:39:49.462Z,84.97
2023-04-19T12:44:50.442Z,85.28
2023-04-19T12:49:51.390Z,85.56
2023-04-19T12:54:52.396Z,86.52
2023-04-19T12:59:53.449Z,86.80
2023-04-19T13:04:54.961Z,86.26
2023-04-19T13:09:56.807Z,85.65
2023-04-19T13:14:58.293Z,85.50
2023-04-19T13:19:59.309Z,85.74
2023-04-19T13:25:00.711Z,86.13
2023-04-19T13:30:02.009Z,85.62
2023-04-19T13:35:05.103Z,85.32
2023-04-19T13:40:17.863Z,84.48
2023-04-19T13:45:20.303Z,84.40
2023-04-19T13:50:21.311Z,84.83
2023-04-19T13:55:22.319Z,84.72
2023-04-19T14:00:23.455Z,84.92
2023-04-19T14:05:24.583Z,84.96
2023-04-19T14:10:25.636Z,85.56
2023-04-19T14:15:26.670Z,85.23
2023-04-19T14:20:27.750Z,85.26
2023-04-19T14:25:28.748Z,85.94
2023-04-19T14:30:31.135Z,85.97
2023-04-19T14:35:32.447Z,85.71
2023-04-19T14:40:33.502Z,86.02
2023-04-19T14:45:34.577Z,85.85
2023-04-19T14:50:35.643Z,85.92
2023-04-19T14:55:37.389Z,86.05
2023-04-19T15:00:38.388Z,85.98
2023-04-19T15:05:39.591Z,85.89
2023-04-19T15:10:40.770Z,86.02
2023-04-19T15:15:41.732Z,86.27
2023-04-19T15:20:42.674Z,86.26
2023-04-19T15:25:44.205Z,86.52
2023-04-19T15:30:56.080Z,86.46
2023-04-19T15:35:58.983Z,86.42
2023-04-19T15:41:03.089Z,86.56
2023-04-19T15:46:04.179Z,86.30
2023-04-19T15:51:06.496Z,86.49
2023-04-19T15:56:08.068Z,86.74
2023-04-19T16:01:12.943Z,86.49
2023-04-19T16:06:14.255Z,86.79
2023-04-19T16:11:17.180Z,86.81
2023-04-19T16:16:20.264Z,86.68
2023-04-19T16:21:22.413Z,86.64
2023-04-19T16:26:25.079Z,86.53
2023-04-19T16:31:26.542Z,86.45
2023-04-19T16:36:27.742Z,87.20
2023-04-19T16:41:29.291Z,87.32
2023-04-19T16:46:30.704Z,87.55
2023-04-19T16:51:32.122Z,87.65
2023-04-19T16:56:33.177Z,87.83
2023-04-19T17:01:34.148Z,88.22
2023-04-19T17:06:35.210Z,88.10
2023-04-19T17:11:36.185Z,88.23
2023-04-19T17:16:37.207Z,88.00
2023-04-19T17:21:38.222Z,88.01
2023-04-19T17:26:39.429Z,87.55
2023-04-19T17:31:40.486Z,87.40
2023-04-19T17:36:41.773Z,87.62
2023-04-19T17:41:44.010Z,87.27
2023-04-19T17:46:45.234Z,87.51
2023-04-19T17:51:46.980Z,87.33
2023-04-19T17:56:49.675Z,87.35
2023-04-19T18:01:50.679Z,87.21
2023-04-19T18:06:51.778Z,87.40
2023-04-19T18:11:52.959Z,87.28
2023-04-19T18:16:54.116Z,86.92
2023-04-19T18:21:55.378Z,86.62
2023-04-19T18:26:57.570Z,86.58
2023-04-19T18:31:58.579Z,86.66
2023-04-19T18:37:02.271Z,86.77
2023-04-19T18:42:03.271Z,86.53
2023-04-19T18:47:05.951Z,86.76
2023-04-19T18:52:06.920Z,86.92
2023-04-19T18:57:22.460Z,87.34
2023-04-19T19:02:25.635Z,87.06
2023-04-19T19:12:32.076Z,87.19
2023-04-19T19:17:33.122Z,87.08
2023-04-19T19:22:34.402Z,87.04
2023-04-19T19:27:36.911Z,87.35
2023-04-19T19:32:39.520Z,87.15
2023-04-19T19:37:40.648Z,87.55
2023-04-19T19:42:41.746Z,87.85
2023-04-19T19:47:45.326Z,87.68
2023-04-19T19:52:47.096Z,87.55
2023-04-19T19:58:23.790Z,87.96
2023-04-19T20:03:10.208Z,87.88
2023-04-19T20:08:13.179Z,88.32
2023-04-19T20:13:14.444Z,88.15
2023-04-19T20:18:17.122Z,88.29
2023-04-19T20:23:19.262Z,89.18
2023-04-19T20:28:20.387Z,88.91
2023-04-19T20:33:21.853Z,88.85
2023-04-19T20:38:23.720Z,88.60
2023-04-19T20:43:24.795Z,88.75
2023-04-19T20:48:25.775Z,88.91
2023-04-19T20:53:26.802Z,88.64
2023-04-19T20:58:27.825Z,88.46
2023-04-19T21:03:29.051Z,88.15
2023-04-19T21:08:30.910Z,87.93
2023-04-19T21:13:35.654Z,88.24
2023-04-19T21:18:36.952Z,88.07
2023-04-19T21:23:38.376Z,88.02
2023-04-19T21:28:39.667Z,87.61
2023-04-19T21:33:43.390Z,87.97
2023-04-19T21:38:44.435Z,88.20
2023-04-19T21:43:46.261Z,87.73
2023-04-19T21:48:47.287Z,87.67
2023-04-19T21:53:50.106Z,87.58
2023-04-19T21:58:51.062Z,87.51
2023-04-19T22:03:55.994Z,87.15
2023-04-19T22:09:02.373Z,87.13
2023-04-19T22:14:03.877Z,87.38
2023-04-19T22:19:04.883Z,87.06
2023-04-19T22:24:06.728Z,87.27
2023-04-19T22:29:07.803Z,87.22
2023-04-19T22:34:08.801Z,87.17
2023-04-19T22:39:09.863Z,87.37
2023-04-19T22:44:11.165Z,87.51
2023-04-19T22:49:12.638Z,87.39
2023-04-19T22:54:16.819Z,87.34
2023-04-19T22:59:18.216Z,87.41
2023-04-19T23:04:19.766Z,86.90
2023-04-19T23:09:23.904Z,87.05
2023-04-19T23:14:30.692Z,86.54
2023-04-19T23:19:31.685Z,86.65
2023-04-19T23:24:35.423Z,86.69
2023-04-19T23:29:36.451Z,85.90
2023-04-19T23:34:37.472Z,85.94
2023-04-19T23:39:39.150Z,86.11
2023-04-19T23:44:43.818Z,86.20
2023-04-19T23:49:51.734Z,85.84
2023-04-19T23:54:52.721Z,85.74
2023-04-19T23:59:53.716Z,85.78
